Time;durP1;ratioP1;P1;durP2;ratioP2;P2;SDS_P1;SDS_P2;PMS_P1;PMS_P2;Temp;Humidity;BMP_temperature;BMP_pressure;BME280_temperature;BME280_humidity;BME280_pressure;Samples;Min_cycle;Max_cycle;Signal;HPM_P1;HPM_P2
2022/01/16 00:00:05;;;;;;;70.55;30.80;;;2.40;99.90;;;;;;5088997;28;20439;-68
2022/01/16 00:05:15;;;;;;;76.05;33.17;;;2.30;99.90;;;;;;5100553;28;20120;-68
2022/01/16 00:07:41;;;;;;;76.35;32.95;;;2.30;99.90;;;;;;5073395;28;20036;-68
2022/01/16 00:10:07;;;;;;;78.57;32.88;;;2.30;99.90;;;;;;5091037;28;20075;-69
2022/01/16 00:12:33;;;;;;;68.43;29.60;;;2.30;99.90;;;;;;5067656;28;20415;-69
2022/01/16 00:14:58;;;;;;;77.55;33.28;;;2.20;99.90;;;;;;5084064;28;20047;-69
2022/01/16 00:17:27;;;;;;;71.90;31.13;;;2.20;99.90;;;;;;5088751;28;20392;-69
2022/01/16 00:19:53;;;;;;;75.93;32.50;;;2.20;99.90;;;;;;5090115;28;20044;-69
2022/01/16 00:22:23;;;;;;;71.40;30.17;;;2.20;99.90;;;;;;5089001;28;20062;-69
2022/01/16 00:24:49;;;;;;;74.10;30.10;;;2.20;99.90;;;;;;5073814;28;20055;-69
2022/01/16 00:27:14;;;;;;;79.22;33.80;;;2.10;99.90;;;;;;5088071;28;20036;-69
2022/01/16 00:29:40;;;;;;;73.72;30.63;;;2.10;99.90;;;;;;5083307;28;20116;-69
2022/01/16 00:32:06;;;;;;;64.25;25.67;;;2.10;99.90;;;;;;5084738;28;20479;-69
2022/01/16 00:34:32;;;;;;;51.65;21.55;;;2.10;99.90;;;;;;5082650;28;20036;-69
2022/01/16 00:36:58;;;;;;;64.45;28.02;;;2.00;99.90;;;;;;5086567;28;20541;-69
2022/01/16 00:39:23;;;;;;;59.75;25.50;;;2.00;99.90;;;;;;5084729;28;20380;-69
2022/01/16 00:41:49;;;;;;;60.08;25.58;;;1.90;99.90;;;;;;5086652;28;20074;-69
2022/01/16 00:44:15;;;;;;;67.50;29.92;;;1.90;99.90;;;;;;5049339;28;20368;-69
2022/01/16 00:46:40;;;;;;;62.63;27.00;;;2.20;99.90;;;;;;5070430;28;20400;-69
2022/01/16 00:49:06;;;;;;;78.72;31.40;;;1.90;99.90;;;;;;5087990;28;20040;-69
2022/01/16 00:51:32;;;;;;;78.13;32.60;;;1.90;99.90;;;;;;5085620;28;20035;-69
2022/01/16 00:53:57;;;;;;;67.57;29.25;;;1.90;99.90;;;;;;5088161;28;20483;-69
2022/01/16 00:56:23;;;;;;;71.68;31.15;;;2.60;99.90;;;;;;5078162;28;20040;-69
2022/01/16 00:58:49;;;;;;;74.18;30.45;;;1.80;99.90;;;;;;5086607;28;20470;-69
2022/01/16 01:01:14;;;;;;;78.15;31.33;;;2.60;99.90;;;;;;5069480;28;20055;-69
2022/01/16 01:03:41;;;;;;;67.70;28.05;;;1.80;99.90;;;;;;5089417;28;20055;-69
2022/01/16 01:06:07;;;;;;;63.78;23.48;;;1.80;99.90;;;;;;5082979;28;20094;-69
2022/01/16 01:08:33;;;;;;;75.53;30.70;;;1.80;99.90;;;;;;5081209;28;20090;-69
2022/01/16 01:11:02;;;;;;;83.70;35.00;;;1.80;99.90;;;;;;5086248;28;20040;-69
2022/01/16 01:13:32;;;;;;;74.45;31.85;;;1.80;99.90;;;;;;5066684;28;20074;-69
2022/01/16 01:16:03;;;;;;;80.03;32.60;;;1.80;99.90;;;;;;5058874;28;20043;-69
2022/01/16 01:18:34;;;;;;;83.13;34.70;;;1.80;99.90;;;;;;5090433;28;20429;-69
2022/01/16 01:21:03;;;;;;;68.88;29.92;;;1.80;99.90;;;;;;5090022;28;20513;-69
2022/01/16 01:23:30;;;;;;;65.53;27.02;;;2.60;99.90;;;;;;5083642;28;20614;-69
2022/01/16 01:25:55;;;;;;;65.97;30.08;;;1.80;99.90;;;;;;5074590;28;20087;-69
2022/01/16 01:28:21;;;;;;;67.07;31.65;;;1.70;99.90;;;;;;5066270;28;20047;-69
2022/01/16 01:30:47;;;;;;;71.93;31.15;;;1.70;99.90;;;;;;5083208;28;20621;-69
2022/01/16 01:33:14;;;;;;;62.85;29.25;;;1.70;99.90;;;;;;5088227;28;20067;-69
2022/01/16 01:35:41;;;;;;;68.22;31.55;;;2.20;99.90;;;;;;5087669;28;20546;-69
2022/01/16 01:38:08;;;;;;;61.58;26.65;;;1.70;99.90;;;;;;5086876;28;20059;-69
2022/01/16 01:40:36;;;;;;;62.40;26.38;;;1.70;99.90;;;;;;5073703;28;20032;-68
2022/01/16 01:51:02;;;;;;;62.53;28.85;;;1.60;99.90;;;;;;5096251;28;20088;-68
2022/01/16 01:51:27;;;;;;;62.28;26.00;;;1.50;99.90;;;;;;5084915;28;20082;-68
2022/01/16 01:53:55;;;;;;;62.30;27.90;;;1.50;99.90;;;;;;5092036;28;20061;-68
2022/01/16 01:56:23;;;;;;;63.63;25.70;;;1.50;99.90;;;;;;5083946;28;20039;-68
2022/01/16 01:58:54;;;;;;;66.78;27.42;;;1.50;99.90;;;;;;5073434;28;20103;-68
2022/01/16 02:01:20;;;;;;;74.20;30.67;;;1.50;99.90;;;;;;5084646;28;20040;-68
2022/01/16 02:03:48;;;;;;;71.43;30.70;;;1.50;99.90;;;;;;5090122;28;20146;-68
2022/01/16 02:06:26;;;;;;;69.22;28.40;;;1.50;99.90;;;;;;5071661;28;20035;-68
2022/01/16 02:08:57;;;;;;;72.50;29.25;;;1.50;99.90;;;;;;5105080;27;20044;-68
2022/01/16 02:11:27;;;;;;;64.32;26.02;;;1.50;99.90;;;;;;5077143;28;20136;-68
2022/01/16 02:28:05;;;;;;;82.70;32.97;;;1.60;99.90;;;;;;5080519;28;20097;-68
2022/01/16 02:31:00;;;;;;;79.68;33.22;;;1.60;99.90;;;;;;5080786;28;20054;-68
2022/01/16 02:34:29;;;;;;;100.80;38.17;;;1.60;99.90;;;;;;5082574;28;20051;-68
2022/01/16 02:36:25;;;;;;;94.18;37.05;;;1.60;99.90;;;;;;5078726;28;20051;-68
2022/01/16 02:38:51;;;;;;;95.97;36.55;;;1.70;99.90;;;;;;5081049;28;20048;-68
2022/01/16 02:41:16;;;;;;;95.18;38.65;;;1.70;99.90;;;;;;5068578;28;20085;-68
2022/01/16 02:43:47;;;;;;;95.13;37.63;;;1.70;99.90;;;;;;5066106;28;20044;-68
2022/01/16 02:48:50;;;;;;;99.50;36.75;;;1.70;99.90;;;;;;5063327;28;20043;-68
2022/01/16 02:51:18;;;;;;;90.10;35.00;;;1.60;99.90;;;;;;5088759;28;20066;-68
2022/01/16 02:53:45;;;;;;;92.85;34.08;;;1.70;99.90;;;;;;5072653;28;20104;-68
2022/01/16 02:56:12;;;;;;;103.43;39.28;;;1.80;99.90;;;;;;5083367;28;20047;-68
2022/01/16 02:58:38;;;;;;;104.07;39.42;;;1.70;99.90;;;;;;5083614;28;20067;-69
2022/01/16 03:01:03;;;;;;;96.53;37.25;;;2.00;99.90;;;;;;5071667;28;20402;-68
2022/01/16 03:03:29;;;;;;;101.72;39.13;;;1.70;99.90;;;;;;5089789;28;20044;-68
2022/01/16 03:05:55;;;;;;;139.48;44.42;;;1.70;99.90;;;;;;5082256;28;20039;-68
2022/01/16 03:08:20;;;;;;;110.55;38.95;;;1.70;99.90;;;;;;5070478;28;20044;-68
2022/01/16 03:13:26;;;;;;;118.20;43.58;;;1.70;99.90;;;;;;5083116;28;20039;-68
2022/01/16 03:15:54;;;;;;;112.10;39.55;;;1.70;99.90;;;;;;5086934;28;20039;-68
2022/01/16 03:23:29;;;;;;;124.97;42.47;;;1.70;99.90;;;;;;5078136;28;20088;-68
2022/01/16 03:25:56;;;;;;;111.40;41.92;;;1.80;99.90;;;;;;5085611;28;20048;-68
2022/01/16 03:28:22;;;;;;;132.73;45.17;;;1.80;99.90;;;;;;5084900;28;20071;-68
2022/01/16 03:30:49;;;;;;;129.13;43.90;;;1.80;99.90;;;;;;5070629;28;20043;-68
2022/01/16 03:33:15;;;;;;;111.93;40.00;;;1.80;99.90;;;;;;5057548;28;20028;-68
2022/01/16 03:35:42;;;;;;;139.27;42.38;;;1.80;99.90;;;;;;5069734;28;20476;-68
2022/01/16 03:38:08;;;;;;;98.93;35.58;;;1.80;99.90;;;;;;5080276;28;20036;-68
2022/01/16 03:40:34;;;;;;;114.80;42.30;;;1.80;99.90;;;;;;5084499;28;20040;-68
2022/01/16 03:43:09;;;;;;;112.07;37.13;;;1.80;99.90;;;;;;5081286;28;20408;-68
2022/01/16 03:45:36;;;;;;;127.53;41.58;;;1.80;99.90;;;;;;5086262;28;20113;-68
2022/01/16 03:48:01;;;;;;;122.95;41.45;;;1.90;99.90;;;;;;5087899;28;20467;-68
2022/01/16 03:50:27;;;;;;;111.35;35.08;;;2.40;99.90;;;;;;5089899;28;20133;-68
2022/01/16 03:52:53;;;;;;;111.90;38.63;;;1.80;99.90;;;;;;5089247;28;20514;-68
2022/01/16 03:55:20;;;;;;;110.25;37.10;;;1.80;99.90;;;;;;5075444;28;20122;-68
2022/01/16 03:57:45;;;;;;;99.75;35.03;;;1.80;99.90;;;;;;5096088;28;20086;-68
2022/01/16 04:00:13;;;;;;;114.13;38.72;;;1.80;99.90;;;;;;5087522;28;20191;-68
2022/01/16 04:02:38;;;;;;;116.20;35.45;;;1.90;99.90;;;;;;5075714;28;20134;-68
2022/01/16 04:05:04;;;;;;;118.20;38.30;;;1.90;99.90;;;;;;5086337;28;20127;-68
2022/01/16 04:07:35;;;;;;;102.43;36.28;;;1.90;99.90;;;;;;5061819;28;20040;-68
2022/01/16 04:10:06;;;;;;;110.25;42.50;;;1.90;99.90;;;;;;5074570;28;20120;-68
2022/01/16 04:12:34;;;;;;;129.75;38.88;;;1.90;99.90;;;;;;5085773;28;20119;-68
2022/01/16 04:17:26;;;;;;;113.55;38.00;;;2.00;99.90;;;;;;5083853;28;20050;-68
2022/01/16 04:19:53;;;;;;;115.75;37.25;;;2.00;99.90;;;;;;5093654;28;20052;-68
2022/01/16 04:22:19;;;;;;;93.53;32.63;;;2.00;99.90;;;;;;5084804;28;20035;-68
2022/01/16 04:24:46;;;;;;;121.68;40.60;;;2.00;99.90;;;;;;5069345;28;20042;-68
2022/01/16 04:27:12;;;;;;;122.80;39.35;;;2.10;99.90;;;;;;5085500;28;20373;-68
2022/01/16 04:29:44;;;;;;;108.78;36.33;;;2.10;99.90;;;;;;5087433;28;20071;-68
2022/01/16 04:32:11;;;;;;;108.90;37.50;;;2.10;99.90;;;;;;5087155;28;20037;-68
2022/01/16 04:34:37;;;;;;;122.30;38.17;;;2.10;99.90;;;;;;5075307;28;20040;-68
2022/01/16 04:37:03;;;;;;;112.38;38.15;;;2.10;99.90;;;;;;5091548;28;20122;-68
2022/01/16 04:39:34;;;;;;;99.50;32.55;;;2.20;99.90;;;;;;5091723;28;20391;-68
2022/01/16 04:44:44;;;;;;;107.63;36.42;;;2.20;99.90;;;;;;5075584;28;20327;-68
2022/01/16 04:47:10;;;;;;;113.50;37.70;;;2.20;99.90;;;;;;5064109;28;20032;-68
2022/01/16 04:49:37;;;;;;;118.60;40.72;;;2.20;99.90;;;;;;5086251;28;20059;-69
2022/01/16 04:52:03;;;;;;;114.80;36.40;;;2.20;99.90;;;;;;5082498;28;20437;-69
2022/01/16 04:54:31;;;;;;;117.50;39.67;;;2.20;99.90;;;;;;5067035;28;20063;-68
2022/01/16 04:56:57;;;;;;;130.15;43.00;;;2.30;99.90;;;;;;5094015;28;20079;-68
2022/01/16 04:59:23;;;;;;;110.47;37.20;;;2.40;99.90;;;;;;5091783;28;20078;-69
2022/01/16 05:01:48;;;;;;;126.75;43.13;;;2.30;99.90;;;;;;5092334;28;20075;-69
2022/01/16 05:04:14;;;;;;;114.22;35.67;;;2.40;99.90;;;;;;5083497;28;20101;-69
2022/01/16 05:06:40;;;;;;;111.00;34.33;;;;;;;;;;5082510;28;20073;-69
2022/01/16 05:09:06;;;;;;;115.60;39.60;;;;;;;;;;5084281;28;20403;-69
2022/01/16 05:11:32;;;;;;;120.55;38.55;;;2.60;99.90;;;;;;5091857;28;20119;-69
2022/01/16 05:16:37;;;;;;;117.85;37.35;;;2.80;99.90;;;;;;5083348;28;20040;-69
2022/01/16 05:19:08;;;;;;;136.35;44.58;;;;;;;;;;5086381;28;20044;-69
2022/01/16 05:21:34;;;;;;;104.70;37.08;;;;;;;;;;5079126;28;20043;-69
2022/01/16 05:24:04;;;;;;;123.95;40.83;;;;;;;;;;5080747;28;20072;-69
2022/01/16 05:26:31;;;;;;;127.45;43.00;;;2.70;99.90;;;;;;5085591;28;20043;-69
2022/01/16 05:28:57;;;;;;;109.32;37.03;;;2.80;99.90;;;;;;5071571;28;20050;-68
2022/01/16 05:31:23;;;;;;;119.93;39.35;;;3.00;99.90;;;;;;5074289;28;20487;-69
2022/01/16 05:33:50;;;;;;;108.47;37.45;;;2.90;99.90;;;;;;5085456;28;20058;-69
2022/01/16 05:36:18;;;;;;;117.88;37.45;;;2.80;99.90;;;;;;5088450;28;20099;-69
2022/01/16 05:38:43;;;;;;;121.78;39.10;;;2.80;99.90;;;;;;5082844;28;20400;-69
2022/01/16 05:41:09;;;;;;;121.93;43.17;;;2.80;99.90;;;;;;5083670;28;20051;-69
2022/01/16 05:43:35;;;;;;;104.72;34.78;;;2.90;99.90;;;;;;5085718;28;20035;-69
2022/01/16 05:46:00;;;;;;;132.02;40.53;;;2.90;99.90;;;;;;5084010;28;20150;-69
2022/01/16 05:48:27;;;;;;;121.63;41.63;;;3.00;99.90;;;;;;5081088;28;20039;-69
2022/01/16 05:50:53;;;;;;;107.93;36.72;;;;;;;;;;5085927;28;20036;-69
2022/01/16 05:53:19;;;;;;;101.65;34.13;;;2.70;99.90;;;;;;5069882;28;20100;-69
2022/01/16 05:55:44;;;;;;;124.80;42.65;;;2.80;99.90;;;;;;5072704;28;20031;-69
2022/01/16 05:58:10;;;;;;;121.55;41.03;;;2.90;99.90;;;;;;5074074;28;20467;-69
2022/01/16 06:00:38;;;;;;;106.07;32.40;;;3.00;99.90;;;;;;5066244;28;20468;-69
2022/01/16 06:03:05;;;;;;;107.00;38.42;;;3.10;99.90;;;;;;5087155;28;20051;-69
2022/01/16 06:05:31;;;;;;;114.38;43.33;;;3.00;99.90;;;;;;5067921;28;20063;-69
2022/01/16 06:08:06;;;;;;;111.85;37.38;;;3.30;99.90;;;;;;5084893;28;20079;-69
2022/01/16 06:10:32;;;;;;;115.07;37.55;;;3.20;99.90;;;;;;5091652;28;20035;-69
2022/01/16 06:12:57;;;;;;;129.55;43.08;;;3.50;99.90;;;;;;5071662;28;20036;-69
2022/01/16 06:15:23;;;;;;;118.25;43.80;;;3.10;99.90;;;;;;5070380;28;20032;-69
2022/01/16 06:17:49;;;;;;;118.57;39.60;;;3.70;99.90;;;;;;5083574;28;20071;-69
2022/01/16 06:20:15;;;;;;;112.50;39.33;;;3.00;99.90;;;;;;5090339;28;20088;-69
2022/01/16 06:22:42;;;;;;;123.25;42.97;;;3.70;99.90;;;;;;5085212;28;20044;-69
2022/01/16 06:25:08;;;;;;;132.90;45.45;;;2.90;99.90;;;;;;5084269;28;21596;-69
2022/01/16 06:27:34;;;;;;;114.22;41.65;;;;;;;;;;5073801;28;20154;-69
2022/01/16 06:30:01;;;;;;;100.35;34.05;;;;;;;;;;5088735;28;20039;-69
2022/01/16 06:32:26;;;;;;;106.68;37.60;;;3.10;99.90;;;;;;5071205;28;20047;-71
2022/01/16 06:34:52;;;;;;;118.10;40.50;;;3.60;99.90;;;;;;5063780;28;20043;-70
2022/01/16 06:37:18;;;;;;;97.25;34.75;;;3.30;99.90;;;;;;5082536;28;20040;-70
2022/01/16 06:39:43;;;;;;;108.57;38.15;;;3.50;99.90;;;;;;5087454;28;20130;-70
2022/01/16 06:42:09;;;;;;;107.55;38.40;;;3.20;99.90;;;;;;5073654;28;20152;-70
2022/01/16 06:44:35;;;;;;;88.43;33.13;;;;;;;;;;5087693;28;20040;-70
2022/01/16 06:47:01;;;;;;;124.35;43.13;;;;;;;;;;5086941;28;20122;-70
2022/01/16 06:49:27;;;;;;;109.63;40.92;;;;;;;;;;5083265;28;20032;-70
2022/01/16 06:51:53;;;;;;;130.75;44.58;;;;;;;;;;5081106;28;20038;-70
2022/01/16 06:54:19;;;;;;;129.90;44.83;;;3.20;99.90;;;;;;5080636;28;20036;-70
2022/01/16 06:56:45;;;;;;;116.68;40.85;;;3.50;99.90;;;;;;5084717;28;20112;-70
2022/01/16 06:59:10;;;;;;;108.90;35.38;;;3.40;99.90;;;;;;5086532;28;20050;-70
2022/01/16 07:01:36;;;;;;;110.53;37.97;;;3.40;99.90;;;;;;5066475;28;20044;-70
2022/01/16 07:04:02;;;;;;;120.10;43.05;;;4.00;99.90;;;;;;5083235;28;20052;-70
2022/01/16 07:06:27;;;;;;;114.25;38.90;;;3.50;99.90;;;;;;5072056;28;20109;-70
2022/01/16 07:08:53;;;;;;;68.30;24.70;;;3.60;99.90;;;;;;5090455;28;20059;-70
2022/01/16 07:11:19;;;;;;;126.13;42.05;;;3.50;99.90;;;;;;5086125;28;20385;-69
2022/01/16 07:13:45;;;;;;;137.02;46.25;;;3.60;99.90;;;;;;5077104;28;20116;-70
2022/01/16 07:16:10;;;;;;;124.95;45.65;;;3.60;99.90;;;;;;5052499;28;20073;-69
2022/01/16 07:18:36;;;;;;;123.53;41.63;;;3.50;99.90;;;;;;5081420;28;20462;-69
2022/01/16 07:21:02;;;;;;;114.95;43.90;;;3.30;99.90;;;;;;5084599;28;20043;-69
2022/01/16 07:23:28;;;;;;;125.97;46.35;;;4.00;99.90;;;;;;5089565;28;20044;-69
2022/01/16 07:25:54;;;;;;;131.70;45.15;;;3.50;99.90;;;;;;5085573;28;20045;-69
2022/01/16 07:28:21;;;;;;;111.90;36.85;;;3.50;99.90;;;;;;5076146;28;20393;-69
2022/01/16 07:30:47;;;;;;;122.05;42.78;;;;;;;;;;5082004;28;20032;-69
2022/01/16 07:33:13;;;;;;;131.88;44.40;;;3.40;99.90;;;;;;5086712;28;20518;-69
2022/01/16 07:35:39;;;;;;;111.97;40.65;;;3.40;99.90;;;;;;5085437;28;20040;-69
2022/01/16 07:38:07;;;;;;;121.53;45.50;;;3.40;99.90;;;;;;5106710;27;20040;-70
2022/01/16 07:40:33;;;;;;;128.32;45.45;;;3.50;99.90;;;;;;5073975;28;20039;-70
2022/01/16 07:42:59;;;;;;;137.18;44.75;;;3.50;99.90;;;;;;5084184;28;20054;-69
2022/01/16 07:45:25;;;;;;;120.63;41.85;;;3.50;99.90;;;;;;5086091;28;20119;-69
2022/01/16 07:47:51;;;;;;;134.75;44.72;;;3.50;99.90;;;;;;5087777;28;20035;-70
2022/01/16 07:50:17;;;;;;;110.95;42.53;;;3.50;99.90;;;;;;5093368;28;20145;-69
2022/01/16 07:52:43;;;;;;;127.63;43.83;;;4.30;99.90;;;;;;5074468;28;20035;-69
2022/01/16 07:55:10;;;;;;;121.75;45.33;;;3.60;99.90;;;;;;5094172;28;20100;-69
2022/01/16 07:57:36;;;;;;;142.88;49.75;;;3.60;99.90;;;;;;5069090;28;20119;-69
2022/01/16 08:00:05;;;;;;;131.90;46.58;;;3.60;99.90;;;;;;5075546;28;20069;-70
2022/01/16 08:02:31;;;;;;;142.68;49.38;;;3.60;99.90;;;;;;5087434;28;20410;-69
2022/01/16 08:04:56;;;;;;;115.72;43.40;;;3.70;99.90;;;;;;5086201;28;20048;-69
2022/01/16 08:07:22;;;;;;;122.88;46.60;;;3.70;99.90;;;;;;5082199;28;20491;-69
2022/01/16 08:09:48;;;;;;;133.27;48.35;;;3.70;99.90;;;;;;5071977;28;20091;-70
2022/01/16 08:12:14;;;;;;;119.03;44.83;;;3.70;99.90;;;;;;5087354;28;20456;-69
2022/01/16 08:14:40;;;;;;;132.02;47.95;;;3.80;99.90;;;;;;5081272;28;20372;-69
2022/01/16 08:17:06;;;;;;;118.25;44.95;;;3.80;99.90;;;;;;5092813;28;20481;-69
2022/01/16 08:19:32;;;;;;;119.28;46.30;;;3.80;99.90;;;;;;5084424;28;20092;-69
2022/01/16 08:21:58;;;;;;;121.40;46.78;;;3.90;99.90;;;;;;5078908;28;20480;-69
2022/01/16 08:24:24;;;;;;;108.30;43.83;;;4.40;99.90;;;;;;5065320;28;20482;-69
2022/01/16 08:26:51;;;;;;;110.82;47.45;;;4.00;99.90;;;;;;5085093;28;20035;-69
2022/01/16 08:29:17;;;;;;;114.07;45.03;;;4.10;99.90;;;;;;5075664;28;20519;-69
2022/01/16 08:31:43;;;;;;;104.03;43.53;;;4.10;99.90;;;;;;5088779;28;20421;-69
2022/01/16 08:34:09;;;;;;;109.30;42.33;;;;;;;;;;5081095;28;20126;-69
2022/01/16 08:36:35;;;;;;;114.70;45.70;;;4.30;99.90;;;;;;5085686;28;20067;-69
2022/01/16 08:39:00;;;;;;;113.20;45.45;;;4.40;99.90;;;;;;5064359;28;20074;-69
2022/01/16 08:41:26;;;;;;;112.82;44.25;;;4.40;99.90;;;;;;5070669;28;20594;-69
2022/01/16 08:43:53;;;;;;;99.07;42.00;;;4.60;99.90;;;;;;5084377;28;20047;-69
2022/01/16 08:46:20;;;;;;;107.65;43.15;;;4.40;99.90;;;;;;5070171;28;20040;-69
2022/01/16 08:48:47;;;;;;;108.10;44.33;;;4.50;99.90;;;;;;5088517;28;20036;-69
2022/01/16 08:51:13;;;;;;;98.45;44.65;;;4.80;99.90;;;;;;5063486;28;20064;-69
2022/01/16 08:53:39;;;;;;;97.82;41.13;;;4.50;99.90;;;;;;5088399;28;20040;-69
2022/01/16 08:56:05;;;;;;;106.78;45.85;;;4.50;99.90;;;;;;5086610;28;20110;-69
2022/01/16 08:58:31;;;;;;;107.55;45.53;;;4.60;99.90;;;;;;5083584;28;20043;-69
2022/01/16 09:00:56;;;;;;;98.28;41.42;;;4.60;99.90;;;;;;5067545;28;20031;-69
2022/01/16 09:03:23;;;;;;;102.85;43.72;;;4.60;99.90;;;;;;5086598;28;20048;-69
2022/01/16 09:05:51;;;;;;;103.25;45.15;;;4.70;99.90;;;;;;5092216;28;20032;-69
2022/01/16 09:08:18;;;;;;;102.93;42.63;;;4.90;99.90;;;;;;5086121;28;20402;-69
2022/01/16 09:10:45;;;;;;;98.30;43.38;;;4.70;99.90;;;;;;5068313;28;20111;-69
2022/01/16 09:13:12;;;;;;;94.00;40.75;;;4.70;99.90;;;;;;5087569;28;20454;-69
2022/01/16 09:15:45;;;;;;;90.45;41.95;;;4.80;99.90;;;;;;5086505;28;20040;-69
2022/01/16 09:18:11;;;;;;;101.93;42.42;;;4.80;99.90;;;;;;5085209;28;20391;-69
2022/01/16 09:20:38;;;;;;;86.03;39.92;;;4.80;99.90;;;;;;5083958;28;20042;-69
2022/01/16 09:23:04;;;;;;;99.35;43.30;;;4.90;99.90;;;;;;5084159;28;20145;-69
2022/01/16 09:25:30;;;;;;;86.05;40.38;;;4.90;99.90;;;;;;5083843;28;20331;-69
2022/01/16 09:27:56;;;;;;;90.82;41.05;;;5.00;99.90;;;;;;5088538;28;20274;-69
2022/01/16 09:30:22;;;;;;;96.88;43.75;;;5.00;99.90;;;;;;5082997;28;20046;-69
2022/01/16 09:32:49;;;;;;;81.82;38.80;;;5.00;99.90;;;;;;5067599;28;20054;-70
2022/01/16 09:35:14;;;;;;;84.10;37.78;;;5.10;99.90;;;;;;5084205;28;20040;-69
2022/01/16 09:37:40;;;;;;;77.30;38.50;;;5.10;99.90;;;;;;5085315;28;20404;-69
2022/01/16 09:40:07;;;;;;;78.65;39.28;;;5.20;99.90;;;;;;5082391;28;20042;-69
2022/01/16 09:42:34;;;;;;;75.88;37.85;;;5.20;99.90;;;;;;5090538;28;20479;-70
2022/01/16 09:45:00;;;;;;;80.03;38.05;;;5.30;99.90;;;;;;5052519;28;20036;-69
2022/01/16 09:47:25;;;;;;;71.47;35.83;;;5.30;99.90;;;;;;5086937;28;20449;-69
2022/01/16 09:49:51;;;;;;;73.38;33.28;;;5.30;99.90;;;;;;5071003;28;20036;-69
2022/01/16 09:52:17;;;;;;;69.80;35.88;;;5.30;99.90;;;;;;5083973;28;20111;-69
2022/01/16 09:54:44;;;;;;;73.30;33.50;;;5.50;99.90;;;;;;5082195;28;20416;-69
2022/01/16 09:57:12;;;;;;;70.72;36.65;;;5.40;99.90;;;;;;5076820;28;20043;-69
2022/01/16 09:59:38;;;;;;;66.32;35.22;;;5.40;99.90;;;;;;5056484;28;20055;-69
2022/01/16 10:02:05;;;;;;;65.72;33.80;;;5.50;99.90;;;;;;5062230;28;20541;-69
2022/01/16 10:04:32;;;;;;;69.13;34.42;;;5.50;99.90;;;;;;5067813;28;20070;-69
2022/01/16 10:07:01;;;;;;;60.50;32.58;;;5.50;99.90;;;;;;5072429;28;20031;-69
2022/01/16 10:09:27;;;;;;;63.88;33.30;;;5.50;99.90;;;;;;5059109;28;20306;-69
2022/01/16 10:11:58;;;;;;;64.63;33.33;;;5.60;99.90;;;;;;5072488;28;20047;-69
2022/01/16 10:14:30;;;;;;;69.68;34.03;;;5.60;99.90;;;;;;5098064;28;20035;-69
2022/01/16 10:16:57;;;;;;;58.40;30.85;;;5.60;99.90;;;;;;5082962;28;20063;-69
2022/01/16 10:19:28;;;;;;;63.15;32.35;;;5.70;99.90;;;;;;5083112;28;20047;-69
2022/01/16 10:22:01;;;;;;;70.03;33.38;;;5.70;99.90;;;;;;5085315;28;20040;-69
2022/01/16 10:24:30;;;;;;;60.83;32.67;;;5.70;99.90;;;;;;5079888;28;20059;-69
2022/01/16 10:27:12;;;;;;;57.63;32.00;;;5.70;99.90;;;;;;5076158;28;20147;-69
2022/01/16 10:29:39;;;;;;;56.03;28.27;;;5.70;99.90;;;;;;5087093;28;20080;-69
2022/01/16 10:32:12;;;;;;;51.22;24.63;;;5.80;99.90;;;;;;5081959;28;20065;-69
2022/01/16 10:34:40;;;;;;;53.05;30.70;;;5.80;99.90;;;;;;5078690;28;20089;-69
2022/01/16 10:37:40;;;;;;;56.03;30.85;;;5.80;99.90;;;;;;5090683;28;20523;-69
2022/01/16 10:40:16;;;;;;;57.70;28.52;;;5.90;99.90;;;;;;5028029;28;20059;-69
2022/01/16 10:42:52;;;;;;;57.17;30.08;;;5.90;99.90;;;;;;5085434;28;20495;-69
2022/01/16 10:45:22;;;;;;;53.30;27.73;;;5.90;99.90;;;;;;5063377;28;20043;-69
2022/01/16 10:47:54;;;;;;;50.25;28.25;;;5.90;99.90;;;;;;5080255;28;20063;-69
2022/01/16 10:50:21;;;;;;;51.35;27.67;;;6.00;99.90;;;;;;5090467;28;20235;-69
2022/01/16 10:53:17;;;;;;;47.42;25.85;;;6.00;99.90;;;;;;5064955;28;20420;-69
2022/01/16 10:55:49;;;;;;;50.20;27.48;;;6.00;99.90;;;;;;5091281;28;20035;-69
2022/01/16 10:58:25;;;;;;;44.35;26.02;;;6.00;99.90;;;;;;5081293;28;20058;-69
2022/01/16 11:00:52;;;;;;;45.17;24.58;;;6.00;99.90;;;;;;5087468;28;20040;-69
2022/01/16 11:03:19;;;;;;;47.08;25.85;;;6.10;99.90;;;;;;5085266;28;20048;-69
2022/01/16 11:05:46;;;;;;;48.47;24.88;;;6.10;99.90;;;;;;5068577;28;20052;-69
2022/01/16 11:08:18;;;;;;;41.83;23.38;;;6.50;99.90;;;;;;5070092;28;20042;-69
2022/01/16 11:10:47;;;;;;;;;;;6.10;99.90;;;;;;5088608;28;20047;-69
2022/01/16 11:13:16;;;;;;;43.45;21.58;;;6.10;99.90;;;;;;5087266;28;20006;-70
2022/01/16 11:15:45;;;;;;;41.65;22.77;;;6.20;99.90;;;;;;5079613;28;20118;-70
2022/01/16 11:18:14;;;;;;;40.03;21.40;;;6.20;99.90;;;;;;5087627;28;20046;-70
2022/01/16 11:20:44;;;;;;;37.05;20.48;;;6.20;99.90;;;;;;5061795;28;20043;-70
2022/01/16 11:23:33;;;;;;;41.15;22.15;;;6.20;99.90;;;;;;5081841;28;20062;-70
2022/01/16 11:26:06;;;;;;;39.17;21.02;;;6.20;99.90;;;;;;5081213;28;20082;-70
2022/01/16 11:28:33;;;;;;;38.30;19.83;;;6.20;99.90;;;;;;5068761;28;20279;-70
2022/01/16 11:31:07;;;;;;;39.90;20.83;;;6.20;99.90;;;;;;5083806;28;20036;-70
2022/01/16 11:33:34;;;;;;;38.33;20.25;;;6.30;99.90;;;;;;5082634;28;20054;-70
2022/01/16 11:36:05;;;;;;;36.67;18.77;;;6.20;99.90;;;;;;5066869;28;20048;-69
2022/01/16 11:38:55;;;;;;;36.40;20.20;;;6.20;99.90;;;;;;5083675;28;20032;-70
2022/01/16 11:41:31;;;;;;;33.45;17.08;;;6.20;99.90;;;;;;5083981;28;20044;-69
2022/01/16 11:43:57;;;;;;;31.05;16.50;;;6.20;99.90;;;;;;5087102;28;20043;-70
2022/01/16 11:46:25;;;;;;;28.63;16.70;;;6.30;99.90;;;;;;5085130;28;20040;-69
2022/01/16 11:48:55;;;;;;;32.35;16.83;;;6.30;99.90;;;;;;5080777;28;20162;-69
2022/01/16 11:53:59;;;;;;;32.40;16.60;;;6.30;99.90;;;;;;5087896;28;20051;-70
2022/01/16 11:56:40;;;;;;;28.73;14.75;;;6.30;99.90;;;;;;5082120;28;21455;-70
2022/01/16 11:59:20;;;;;;;31.02;14.68;;;6.30;99.90;;;;;;5082979;28;20124;-70
2022/01/16 12:01:50;;;;;;;28.67;15.45;;;6.70;99.90;;;;;;5079597;28;20089;-70
2022/01/16 12:04:28;;;;;;;27.55;13.82;;;7.00;99.90;;;;;;5093986;28;20052;-70
2022/01/16 12:07:20;;;;;;;27.60;14.50;;;6.40;99.90;;;;;;5085386;28;20028;-70
2022/01/16 12:09:53;;;;;;;27.23;12.75;;;6.40;99.90;;;;;;5054399;28;20051;-70
2022/01/16 12:12:19;;;;;;;20.60;11.93;;;6.40;99.90;;;;;;5072432;28;20043;-69
2022/01/16 12:14:48;;;;;;;26.60;12.43;;;6.40;99.90;;;;;;5089054;28;20032;-70
2022/01/16 12:17:39;;;;;;;23.50;12.50;;;6.40;99.90;;;;;;5071050;28;20260;-69
2022/01/16 12:20:22;;;;;;;22.08;11.60;;;6.50;99.90;;;;;;5106655;27;20044;-69
2022/01/16 12:22:50;;;;;;;27.60;11.45;;;6.50;99.90;;;;;;5087293;28;20039;-69
2022/01/16 12:25:19;;;;;;;20.90;9.70;;;6.50;99.90;;;;;;5089992;28;20046;-69
2022/01/16 12:28:12;;;;;;;18.52;10.20;;;6.50;99.90;;;;;;5090951;28;20624;-70
2022/01/16 12:30:51;;;;;;;19.00;8.88;;;6.60;99.90;;;;;;5070474;28;20052;-68
2022/01/16 12:33:35;;;;;;;17.80;9.48;;;6.60;99.90;;;;;;5098064;28;20043;-69
2022/01/16 12:36:32;;;;;;;18.48;9.90;;;6.60;99.90;;;;;;5085728;28;20044;-68
2022/01/16 12:39:06;;;;;;;18.73;9.00;;;6.60;99.90;;;;;;5087666;28;20039;-69
2022/01/16 12:41:41;;;;;;;15.20;8.15;;;6.60;99.90;;;;;;5073788;28;20039;-69
2022/01/16 12:44:08;;;;;;;17.33;7.72;;;7.10;99.90;;;;;;5082898;28;20091;-69
2022/01/16 12:46:38;;;;;;;16.90;7.70;;;6.70;99.90;;;;;;5085436;28;20067;-69
2022/01/16 12:49:10;;;;;;;18.05;7.80;;;6.70;99.90;;;;;;5083697;28;20107;-71
2022/01/16 12:51:38;;;;;;;17.75;8.18;;;6.70;99.90;;;;;;5063518;28;20500;-69
2022/01/16 12:54:12;;;;;;;18.27;8.80;;;6.70;99.90;;;;;;5064845;28;20506;-70
2022/01/16 12:56:39;;;;;;;22.05;8.73;;;6.70;99.90;;;;;;5070798;28;20054;-69
2022/01/16 12:59:13;;;;;;;16.92;8.02;;;6.70;99.90;;;;;;5073860;28;20434;-70
2022/01/16 13:01:43;;;;;;;13.48;7.35;;;6.70;99.90;;;;;;5082144;28;20036;-70
2022/01/16 13:04:21;;;;;;;20.25;6.90;;;6.80;99.90;;;;;;5079603;28;20086;-70
2022/01/16 13:06:47;;;;;;;16.70;6.82;;;6.70;99.90;;;;;;5070068;28;20519;-68
2022/01/16 13:09:14;;;;;;;17.38;7.47;;;7.30;99.90;;;;;;5056757;28;20572;-69
2022/01/16 13:11:47;;;;;;;16.67;7.78;;;6.80;99.90;;;;;;5076807;28;20387;-70
2022/01/16 13:14:25;;;;;;;18.05;7.18;;;6.80;99.90;;;;;;5089898;28;20034;-69
2022/01/16 13:16:53;;;;;;;14.70;6.95;;;6.80;99.90;;;;;;5071630;28;20127;-69
2022/01/16 13:19:21;;;;;;;17.80;7.38;;;6.80;99.90;;;;;;5082271;28;20040;-69
2022/01/16 13:22:01;;;;;;;18.88;8.15;;;6.80;99.90;;;;;;5082093;28;20043;-69
2022/01/16 13:24:29;;;;;;;11.43;6.22;;;6.80;99.90;;;;;;5079985;28;20415;-69
2022/01/16 13:26:56;;;;;;;19.45;7.50;;;6.80;99.90;;;;;;5069344;28;20036;-69